sensor_id;sensor_type;location;lat;lon;timestamp;P1;durP1;ratioP1;P2;durP2;ratioP2
20814;SDS011;10568;48.176;16.316;2023-07-30T00:02:16;2.03;;;1.00;;
20814;SDS011;10568;48.176;16.316;2023-07-30T00:04:45;2.45;;;1.20;;
20814;SDS011;10568;48.176;16.316;2023-07-30T00:07:12;1.95;;;1.13;;
20814;SDS011;10568;48.176;16.316;2023-07-30T00:09:38;1.23;;;1.13;;
20814;SDS011;10568;48.176;16.316;2023-07-30T00:12:05;1.70;;;1.20;;
20814;SDS011;10568;48.176;16.316;2023-07-30T00:14:32;2.78;;;1.27;;
20814;SDS011;10568;48.176;16.316;2023-07-30T00:16:57;1.40;;;1.30;;
20814;SDS011;10568;48.176;16.316;2023-07-30T00:19:23;1.30;;;1.08;;
20814;SDS011;10568;48.176;16.316;2023-07-30T00:21:49;1.80;;;1.15;;
20814;SDS011;10568;48.176;16.316;2023-07-30T00:24:15;1.83;;;1.40;;
20814;SDS011;10568;48.176;16.316;2023-07-30T00:26:40;1.70;;;1.10;;
20814;SDS011;10568;48.176;16.316;2023-07-30T00:29:06;1.58;;;1.25;;
20814;SDS011;10568;48.176;16.316;2023-07-30T00:31:32;2.47;;;1.10;;
20814;SDS011;10568;48.176;16.316;2023-07-30T00:33:58;1.00;;;0.80;;
20814;SDS011;10568;48.176;16.316;2023-07-30T00:36:23;1.83;;;1.30;;
20814;SDS011;10568;48.176;16.316;2023-07-30T00:38:49;1.70;;;1.00;;
20814;SDS011;10568;48.176;16.316;2023-07-30T00:41:15;1.50;;;1.10;;
20814;SDS011;10568;48.176;16.316;2023-07-30T00:43:41;3.78;;;1.00;;
20814;SDS011;10568;48.176;16.316;2023-07-30T00:46:06;2.22;;;1.13;;
20814;SDS011;10568;48.176;16.316;2023-07-30T00:48:33;1.95;;;1.17;;
20814;SDS011;10568;48.176;16.316;2023-07-30T00:50:59;1.77;;;1.02;;
20814;SDS011;10568;48.176;16.316;2023-07-30T00:53:26;1.48;;;0.95;;
20814;SDS011;10568;48.176;16.316;2023-07-30T00:58:41;1.02;;;0.93;;
20814;SDS011;10568;48.176;16.316;2023-07-30T01:01:09;1.20;;;1.10;;
20814;SDS011;10568;48.176;16.316;2023-07-30T01:03:36;2.42;;;1.20;;
20814;SDS011;10568;48.176;16.316;2023-07-30T01:06:02;1.35;;;0.95;;
20814;SDS011;10568;48.176;16.316;2023-07-30T01:08:27;1.10;;;1.00;;
20814;SDS011;10568;48.176;16.316;2023-07-30T01:10:53;1.50;;;1.30;;
20814;SDS011;10568;48.176;16.316;2023-07-30T01:13:20;1.48;;;1.10;;
20814;SDS011;10568;48.176;16.316;2023-07-30T01:15:47;1.25;;;0.98;;
20814;SDS011;10568;48.176;16.316;2023-07-30T01:18:12;1.30;;;1.02;;
20814;SDS011;10568;48.176;16.316;2023-07-30T01:20:38;2.25;;;1.10;;
20814;SDS011;10568;48.176;16.316;2023-07-30T01:23:04;1.30;;;0.80;;
20814;SDS011;10568;48.176;16.316;2023-07-30T01:25:30;1.23;;;1.00;;
20814;SDS011;10568;48.176;16.316;2023-07-30T01:28:01;1.38;;;1.00;;
20814;SDS011;10568;48.176;16.316;2023-07-30T01:30:37;1.20;;;1.08;;
20814;SDS011;10568;48.176;16.316;2023-07-30T01:33:06;1.40;;;1.00;;
20814;SDS011;10568;48.176;16.316;2023-07-30T01:35:33;1.90;;;1.20;;
20814;SDS011;10568;48.176;16.316;2023-07-30T01:38:01;1.58;;;1.00;;
20814;SDS011;10568;48.176;16.316;2023-07-30T01:40:30;1.25;;;0.73;;
20814;SDS011;10568;48.176;16.316;2023-07-30T01:42:59;1.08;;;0.90;;
20814;SDS011;10568;48.176;16.316;2023-07-30T01:45:25;0.93;;;0.82;;
20814;SDS011;10568;48.176;16.316;2023-07-30T01:47:51;1.00;;;0.90;;
20814;SDS011;10568;48.176;16.316;2023-07-30T01:50:17;2.63;;;1.17;;
20814;SDS011;10568;48.176;16.316;2023-07-30T01:52:42;1.65;;;1.02;;
20814;SDS011;10568;48.176;16.316;2023-07-30T01:55:08;2.20;;;1.05;;
20814;SDS011;10568;48.176;16.316;2023-07-30T01:57:34;1.63;;;1.10;;
20814;SDS011;10568;48.176;16.316;2023-07-30T02:00:00;1.35;;;1.10;;
20814;SDS011;10568;48.176;16.316;2023-07-30T02:02:26;1.15;;;0.80;;
20814;SDS011;10568;48.176;16.316;2023-07-30T02:04:51;1.05;;;0.95;;
20814;SDS011;10568;48.176;16.316;2023-07-30T02:07:17;2.28;;;1.23;;
20814;SDS011;10568;48.176;16.316;2023-07-30T02:09:43;1.20;;;0.85;;
20814;SDS011;10568;48.176;16.316;2023-07-30T02:12:08;1.10;;;0.90;;
20814;SDS011;10568;48.176;16.316;2023-07-30T02:14:34;1.42;;;0.90;;
20814;SDS011;10568;48.176;16.316;2023-07-30T02:17:00;1.27;;;0.80;;
20814;SDS011;10568;48.176;16.316;2023-07-30T02:19:26;2.40;;;1.00;;
20814;SDS011;10568;48.176;16.316;2023-07-30T02:21:52;1.20;;;1.00;;
20814;SDS011;10568;48.176;16.316;2023-07-30T02:24:17;1.40;;;1.00;;
20814;SDS011;10568;48.176;16.316;2023-07-30T02:26:43;1.85;;;0.98;;
20814;SDS011;10568;48.176;16.316;2023-07-30T02:29:09;1.73;;;0.90;;
20814;SDS011;10568;48.176;16.316;2023-07-30T02:31:34;1.50;;;0.90;;
20814;SDS011;10568;48.176;16.316;2023-07-30T02:34:00;1.38;;;1.02;;
20814;SDS011;10568;48.176;16.316;2023-07-30T02:36:26;1.17;;;0.90;;
20814;SDS011;10568;48.176;16.316;2023-07-30T02:38:52;2.47;;;1.20;;
20814;SDS011;10568;48.176;16.316;2023-07-30T02:41:17;1.70;;;1.20;;
20814;SDS011;10568;48.176;16.316;2023-07-30T02:43:43;1.73;;;1.13;;
20814;SDS011;10568;48.176;16.316;2023-07-30T02:46:09;1.42;;;1.02;;
20814;SDS011;10568;48.176;16.316;2023-07-30T02:48:35;1.00;;;0.90;;
20814;SDS011;10568;48.176;16.316;2023-07-30T02:51:00;1.38;;;1.08;;
20814;SDS011;10568;48.176;16.316;2023-07-30T02:53:29;1.58;;;1.10;;
20814;SDS011;10568;48.176;16.316;2023-07-30T02:55:55;2.78;;;1.17;;
20814;SDS011;10568;48.176;16.316;2023-07-30T02:58:20;1.55;;;1.10;;
20814;SDS011;10568;48.176;16.316;2023-07-30T03:00:46;1.33;;;1.13;;
20814;SDS011;10568;48.176;16.316;2023-07-30T03:03:12;1.00;;;0.90;;
20814;SDS011;10568;48.176;16.316;2023-07-30T03:05:41;1.75;;;1.10;;
20814;SDS011;10568;48.176;16.316;2023-07-30T03:08:08;3.33;;;0.90;;
20814;SDS011;10568;48.176;16.316;2023-07-30T03:10:35;1.65;;;1.13;;
20814;SDS011;10568;48.176;16.316;2023-07-30T03:13:01;2.80;;;1.27;;
20814;SDS011;10568;48.176;16.316;2023-07-30T03:15:27;1.80;;;0.88;;
20814;SDS011;10568;48.176;16.316;2023-07-30T03:17:53;2.55;;;0.98;;
20814;SDS011;10568;48.176;16.316;2023-07-30T03:20:19;1.63;;;1.17;;
20814;SDS011;10568;48.176;16.316;2023-07-30T03:22:47;1.35;;;1.00;;
20814;SDS011;10568;48.176;16.316;2023-07-30T03:25:13;1.55;;;1.00;;
20814;SDS011;10568;48.176;16.316;2023-07-30T03:27:39;1.83;;;1.13;;
20814;SDS011;10568;48.176;16.316;2023-07-30T03:30:05;1.42;;;0.93;;
20814;SDS011;10568;48.176;16.316;2023-07-30T03:32:31;1.65;;;1.10;;
20814;SDS011;10568;48.176;16.316;2023-07-30T03:34:57;1.60;;;1.00;;
20814;SDS011;10568;48.176;16.316;2023-07-30T03:37:22;1.85;;;1.20;;
20814;SDS011;10568;48.176;16.316;2023-07-30T03:39:48;1.25;;;0.88;;
20814;SDS011;10568;48.176;16.316;2023-07-30T03:42:14;1.48;;;0.90;;
20814;SDS011;10568;48.176;16.316;2023-07-30T03:44:39;1.58;;;1.20;;
20814;SDS011;10568;48.176;16.316;2023-07-30T03:47:05;1.50;;;0.90;;
20814;SDS011;10568;48.176;16.316;2023-07-30T03:49:31;2.00;;;1.27;;
20814;SDS011;10568;48.176;16.316;2023-07-30T03:51:57;1.70;;;1.05;;
20814;SDS011;10568;48.176;16.316;2023-07-30T03:57:07;1.70;;;1.30;;
20814;SDS011;10568;48.176;16.316;2023-07-30T03:59:32;1.60;;;1.10;;
20814;SDS011;10568;48.176;16.316;2023-07-30T04:01:58;1.40;;;0.90;;
20814;SDS011;10568;48.176;16.316;2023-07-30T04:04:24;2.92;;;1.05;;
20814;SDS011;10568;48.176;16.316;2023-07-30T04:06:50;1.48;;;1.20;;
20814;SDS011;10568;48.176;16.316;2023-07-30T04:09:16;1.30;;;1.20;;
20814;SDS011;10568;48.176;16.316;2023-07-30T04:11:41;1.83;;;1.10;;
20814;SDS011;10568;48.176;16.316;2023-07-30T04:14:07;2.10;;;1.30;;
20814;SDS011;10568;48.176;16.316;2023-07-30T04:16:34;1.38;;;1.10;;
20814;SDS011;10568;48.176;16.316;2023-07-30T04:19:00;1.40;;;1.20;;
20814;SDS011;10568;48.176;16.316;2023-07-30T04:21:26;2.22;;;1.27;;
20814;SDS011;10568;48.176;16.316;2023-07-30T04:23:51;1.20;;;0.93;;
20814;SDS011;10568;48.176;16.316;2023-07-30T04:26:17;1.52;;;1.10;;
20814;SDS011;10568;48.176;16.316;2023-07-30T04:28:43;1.52;;;1.10;;
20814;SDS011;10568;48.176;16.316;2023-07-30T04:31:09;1.30;;;0.93;;
20814;SDS011;10568;48.176;16.316;2023-07-30T04:33:34;1.52;;;1.00;;
20814;SDS011;10568;48.176;16.316;2023-07-30T04:36:00;1.73;;;1.30;;
20814;SDS011;10568;48.176;16.316;2023-07-30T04:38:35;1.48;;;1.10;;
20814;SDS011;10568;48.176;16.316;2023-07-30T04:41:01;1.73;;;1.20;;
20814;SDS011;10568;48.176;16.316;2023-07-30T04:43:27;2.08;;;1.30;;
20814;SDS011;10568;48.176;16.316;2023-07-30T04:45:53;2.30;;;1.08;;
20814;SDS011;10568;48.176;16.316;2023-07-30T04:48:19;1.30;;;1.13;;
20814;SDS011;10568;48.176;16.316;2023-07-30T04:50:45;4.07;;;1.25;;
20814;SDS011;10568;48.176;16.316;2023-07-30T04:53:10;1.10;;;1.00;;
20814;SDS011;10568;48.176;16.316;2023-07-30T04:55:36;1.35;;;1.17;;
20814;SDS011;10568;48.176;16.316;2023-07-30T04:58:02;1.88;;;1.30;;
20814;SDS011;10568;48.176;16.316;2023-07-30T05:00:28;2.25;;;1.30;;
20814;SDS011;10568;48.176;16.316;2023-07-30T05:02:54;2.03;;;1.30;;
20814;SDS011;10568;48.176;16.316;2023-07-30T05:05:20;1.48;;;0.90;;
20814;SDS011;10568;48.176;16.316;2023-07-30T05:07:46;4.32;;;1.10;;
20814;SDS011;10568;48.176;16.316;2023-07-30T05:10:12;1.70;;;1.13;;
20814;SDS011;10568;48.176;16.316;2023-07-30T05:12:37;1.73;;;1.23;;
20814;SDS011;10568;48.176;16.316;2023-07-30T05:15:04;1.70;;;1.33;;
20814;SDS011;10568;48.176;16.316;2023-07-30T05:17:31;2.33;;;1.30;;
20814;SDS011;10568;48.176;16.316;2023-07-30T05:19:56;2.25;;;1.10;;
20814;SDS011;10568;48.176;16.316;2023-07-30T05:22:22;1.92;;;1.17;;
20814;SDS011;10568;48.176;16.316;2023-07-30T05:24:50;1.65;;;1.25;;
20814;SDS011;10568;48.176;16.316;2023-07-30T05:27:16;1.60;;;1.23;;
20814;SDS011;10568;48.176;16.316;2023-07-30T05:29:41;2.40;;;1.33;;
20814;SDS011;10568;48.176;16.316;2023-07-30T05:32:08;1.88;;;1.30;;
20814;SDS011;10568;48.176;16.316;2023-07-30T05:34:34;1.15;;;1.05;;
20814;SDS011;10568;48.176;16.316;2023-07-30T05:37:00;4.10;;;1.08;;
20814;SDS011;10568;48.176;16.316;2023-07-30T05:39:25;2.05;;;1.55;;
20814;SDS011;10568;48.176;16.316;2023-07-30T05:41:51;1.55;;;1.20;;
20814;SDS011;10568;48.176;16.316;2023-07-30T05:44:17;2.00;;;1.10;;
20814;SDS011;10568;48.176;16.316;2023-07-30T05:46:43;1.63;;;1.40;;
20814;SDS011;10568;48.176;16.316;2023-07-30T05:49:09;1.77;;;1.20;;
20814;SDS011;10568;48.176;16.316;2023-07-30T05:51:35;1.92;;;1.30;;
20814;SDS011;10568;48.176;16.316;2023-07-30T05:54:01;1.60;;;1.10;;
20814;SDS011;10568;48.176;16.316;2023-07-30T05:56:27;2.33;;;1.40;;
20814;SDS011;10568;48.176;16.316;2023-07-30T05:58:53;4.68;;;1.33;;
20814;SDS011;10568;48.176;16.316;2023-07-30T06:01:18;2.72;;;1.15;;
20814;SDS011;10568;48.176;16.316;2023-07-30T06:03:45;1.55;;;1.10;;
20814;SDS011;10568;48.176;16.316;2023-07-30T06:06:10;1.30;;;1.10;;
20814;SDS011;10568;48.176;16.316;2023-07-30T06:08:36;1.48;;;1.08;;
20814;SDS011;10568;48.176;16.316;2023-07-30T06:11:02;1.33;;;1.15;;
20814;SDS011;10568;48.176;16.316;2023-07-30T06:13:28;3.15;;;1.33;;
20814;SDS011;10568;48.176;16.316;2023-07-30T06:15:54;1.60;;;1.13;;
20814;SDS011;10568;48.176;16.316;2023-07-30T06:18:20;1.58;;;1.00;;
20814;SDS011;10568;48.176;16.316;2023-07-30T06:20:46;1.40;;;1.00;;
20814;SDS011;10568;48.176;16.316;2023-07-30T06:23:12;1.90;;;1.23;;
20814;SDS011;10568;48.176;16.316;2023-07-30T06:25:38;1.50;;;1.10;;
20814;SDS011;10568;48.176;16.316;2023-07-30T06:28:06;1.85;;;1.25;;
20814;SDS011;10568;48.176;16.316;2023-07-30T06:30:32;2.00;;;1.05;;
20814;SDS011;10568;48.176;16.316;2023-07-30T06:32:58;1.80;;;1.13;;
20814;SDS011;10568;48.176;16.316;2023-07-30T06:35:24;2.00;;;1.20;;
20814;SDS011;10568;48.176;16.316;2023-07-30T06:37:50;1.55;;;0.98;;
20814;SDS011;10568;48.176;16.316;2023-07-30T06:40:16;1.23;;;1.00;;
20814;SDS011;10568;48.176;16.316;2023-07-30T06:42:42;2.55;;;1.00;;
20814;SDS011;10568;48.176;16.316;2023-07-30T06:45:08;1.92;;;1.08;;
20814;SDS011;10568;48.176;16.316;2023-07-30T06:47:34;1.40;;;0.90;;
20814;SDS011;10568;48.176;16.316;2023-07-30T06:49:59;1.13;;;0.90;;
20814;SDS011;10568;48.176;16.316;2023-07-30T06:52:25;2.53;;;1.00;;
20814;SDS011;10568;48.176;16.316;2023-07-30T06:54:51;1.10;;;0.80;;
20814;SDS011;10568;48.176;16.316;2023-07-30T06:57:17;1.05;;;0.80;;
20814;SDS011;10568;48.176;16.316;2023-07-30T06:59:42;0.75;;;0.73;;
20814;SDS011;10568;48.176;16.316;2023-07-30T07:02:08;0.85;;;0.70;;
20814;SDS011;10568;48.176;16.316;2023-07-30T07:04:34;1.40;;;1.00;;
20814;SDS011;10568;48.176;16.316;2023-07-30T07:07:00;1.30;;;1.10;;
20814;SDS011;10568;48.176;16.316;2023-07-30T07:09:28;1.42;;;0.75;;
20814;SDS011;10568;48.176;16.316;2023-07-30T07:11:54;0.90;;;0.73;;
20814;SDS011;10568;48.176;16.316;2023-07-30T07:14:20;0.80;;;0.70;;
20814;SDS011;10568;48.176;16.316;2023-07-30T07:16:45;1.00;;;0.70;;
20814;SDS011;10568;48.176;16.316;2023-07-30T07:19:13;1.13;;;0.80;;
20814;SDS011;10568;48.176;16.316;2023-07-30T07:21:39;0.95;;;0.73;;
20814;SDS011;10568;48.176;16.316;2023-07-30T07:24:05;0.77;;;0.70;;
20814;SDS011;10568;48.176;16.316;2023-07-30T07:26:31;2.95;;;0.80;;
20814;SDS011;10568;48.176;16.316;2023-07-30T07:28:56;1.40;;;0.80;;
20814;SDS011;10568;48.176;16.316;2023-07-30T07:31:22;1.10;;;0.60;;
20814;SDS011;10568;48.176;16.316;2023-07-30T07:33:48;0.93;;;0.70;;
20814;SDS011;10568;48.176;16.316;2023-07-30T07:36:14;0.88;;;0.70;;
20814;SDS011;10568;48.176;16.316;2023-07-30T07:38:41;1.08;;;0.90;;
20814;SDS011;10568;48.176;16.316;2023-07-30T07:41:06;0.70;;;0.60;;
20814;SDS011;10568;48.176;16.316;2023-07-30T07:43:32;1.08;;;0.73;;
20814;SDS011;10568;48.176;16.316;2023-07-30T07:45:58;0.73;;;0.63;;
20814;SDS011;10568;48.176;16.316;2023-07-30T07:48:23;0.95;;;0.80;;
20814;SDS011;10568;48.176;16.316;2023-07-30T07:50:49;1.55;;;0.80;;
20814;SDS011;10568;48.176;16.316;2023-07-30T07:53:15;1.55;;;1.00;;
20814;SDS011;10568;48.176;16.316;2023-07-30T07:55:41;1.02;;;0.65;;
20814;SDS011;10568;48.176;16.316;2023-07-30T07:58:06;0.95;;;0.80;;
20814;SDS011;10568;48.176;16.316;2023-07-30T08:00:32;1.13;;;0.60;;
20814;SDS011;10568;48.176;16.316;2023-07-30T08:02:58;1.02;;;0.75;;
20814;SDS011;10568;48.176;16.316;2023-07-30T08:05:23;1.10;;;0.63;;
20814;SDS011;10568;48.176;16.316;2023-07-30T08:07:49;0.98;;;0.80;;
20814;SDS011;10568;48.176;16.316;2023-07-30T08:10:15;1.35;;;0.90;;
20814;SDS011;10568;48.176;16.316;2023-07-30T08:12:41;1.13;;;1.00;;
20814;SDS011;10568;48.176;16.316;2023-07-30T08:15:07;1.65;;;1.30;;
20814;SDS011;10568;48.176;16.316;2023-07-30T08:17:33;2.35;;;1.20;;
20814;SDS011;10568;48.176;16.316;2023-07-30T08:19:59;1.45;;;0.98;;
20814;SDS011;10568;48.176;16.316;2023-07-30T08:22:25;1.20;;;0.80;;
20814;SDS011;10568;48.176;16.316;2023-07-30T08:24:50;1.50;;;0.93;;
20814;SDS011;10568;48.176;16.316;2023-07-30T08:27:16;2.40;;;1.25;;
20814;SDS011;10568;48.176;16.316;2023-07-30T08:29:42;1.25;;;1.10;;
20814;SDS011;10568;48.176;16.316;2023-07-30T08:32:08;1.13;;;0.88;;
20814;SDS011;10568;48.176;16.316;2023-07-30T08:34:33;2.70;;;0.90;;
20814;SDS011;10568;48.176;16.316;2023-07-30T08:36:59;1.92;;;1.20;;
20814;SDS011;10568;48.176;16.316;2023-07-30T08:39:25;1.40;;;0.98;;
20814;SDS011;10568;48.176;16.316;2023-07-30T08:41:51;1.50;;;1.00;;
20814;SDS011;10568;48.176;16.316;2023-07-30T08:44:16;1.20;;;1.00;;
20814;SDS011;10568;48.176;16.316;2023-07-30T08:46:42;1.50;;;1.05;;
20814;SDS011;10568;48.176;16.316;2023-07-30T08:49:08;1.70;;;1.17;;
20814;SDS011;10568;48.176;16.316;2023-07-30T08:51:34;1.35;;;1.10;;
20814;SDS011;10568;48.176;16.316;2023-07-30T08:54:02;1.10;;;1.00;;
20814;SDS011;10568;48.176;16.316;2023-07-30T08:56:30;1.63;;;1.10;;
20814;SDS011;10568;48.176;16.316;2023-07-30T08:58:56;1.55;;;0.88;;
20814;SDS011;10568;48.176;16.316;2023-07-30T09:01:25;1.40;;;1.08;;
20814;SDS011;10568;48.176;16.316;2023-07-30T09:03:59;1.45;;;0.93;;
20814;SDS011;10568;48.176;16.316;2023-07-30T09:06:28;1.33;;;1.05;;
20814;SDS011;10568;48.176;16.316;2023-07-30T09:08:53;2.58;;;1.30;;
20814;SDS011;10568;48.176;16.316;2023-07-30T09:11:19;1.40;;;1.10;;
20814;SDS011;10568;48.176;16.316;2023-07-30T09:13:45;1.67;;;1.00;;
20814;SDS011;10568;48.176;16.316;2023-07-30T09:16:11;1.50;;;0.60;;
20814;SDS011;10568;48.176;16.316;2023-07-30T09:18:39;1.17;;;0.70;;
20814;SDS011;10568;48.176;16.316;2023-07-30T09:21:14;1.15;;;0.73;;
20814;SDS011;10568;48.176;16.316;2023-07-30T09:23:44;0.80;;;0.70;;
20814;SDS011;10568;48.176;16.316;2023-07-30T09:26:11;0.90;;;0.70;;
20814;SDS011;10568;48.176;16.316;2023-07-30T09:28:37;1.63;;;1.00;;
20814;SDS011;10568;48.176;16.316;2023-07-30T09:31:05;1.15;;;0.63;;
20814;SDS011;10568;48.176;16.316;2023-07-30T09:33:33;1.98;;;0.70;;
20814;SDS011;10568;48.176;16.316;2023-07-30T09:36:03;1.00;;;0.80;;
20814;SDS011;10568;48.176;16.316;2023-07-30T09:38:29;1.95;;;0.70;;
20814;SDS011;10568;48.176;16.316;2023-07-30T09:41:01;1.20;;;0.98;;
20814;SDS011;10568;48.176;16.316;2023-07-30T09:43:36;0.75;;;0.68;;
20814;SDS011;10568;48.176;16.316;2023-07-30T09:46:02;1.38;;;0.80;;
20814;SDS011;10568;48.176;16.316;2023-07-30T09:48:31;0.80;;;0.80;;
20814;SDS011;10568;48.176;16.316;2023-07-30T09:51:03;0.93;;;0.80;;
20814;SDS011;10568;48.176;16.316;2023-07-30T09:53:31;0.90;;;0.68;;
20814;SDS011;10568;48.176;16.316;2023-07-30T09:56:04;0.75;;;0.75;;
20814;SDS011;10568;48.176;16.316;2023-07-30T09:58:33;0.77;;;0.60;;
20814;SDS011;10568;48.176;16.316;2023-07-30T10:01:02;2.67;;;0.70;;
20814;SDS011;10568;48.176;16.316;2023-07-30T10:03:29;0.63;;;0.63;;
20814;SDS011;10568;48.176;16.316;2023-07-30T10:06:01;0.93;;;0.70;;
20814;SDS011;10568;48.176;16.316;2023-07-30T10:08:29;0.73;;;0.50;;
20814;SDS011;10568;48.176;16.316;2023-07-30T10:10:59;1.33;;;0.75;;
20814;SDS011;10568;48.176;16.316;2023-07-30T10:13:46;1.08;;;0.80;;
20814;SDS011;10568;48.176;16.316;2023-07-30T10:16:12;1.23;;;0.70;;
20814;SDS011;10568;48.176;16.316;2023-07-30T10:18:39;0.80;;;0.60;;
20814;SDS011;10568;48.176;16.316;2023-07-30T10:21:09;0.73;;;0.70;;
20814;SDS011;10568;48.176;16.316;2023-07-30T10:23:42;0.60;;;0.60;;
20814;SDS011;10568;48.176;16.316;2023-07-30T10:26:12;1.88;;;0.65;;
20814;SDS011;10568;48.176;16.316;2023-07-30T10:28:37;1.15;;;0.73;;
20814;SDS011;10568;48.176;16.316;2023-07-30T10:31:08;0.85;;;0.68;;
20814;SDS011;10568;48.176;16.316;2023-07-30T10:33:43;1.30;;;0.73;;
20814;SDS011;10568;48.176;16.316;2023-07-30T10:36:18;0.65;;;0.65;;
20814;SDS011;10568;48.176;16.316;2023-07-30T10:39:17;0.88;;;0.70;;
20814;SDS011;10568;48.176;16.316;2023-07-30T10:41:51;1.27;;;0.70;;
20814;SDS011;10568;48.176;16.316;2023-07-30T10:44:28;1.05;;;0.90;;
20814;SDS011;10568;48.176;16.316;2023-07-30T10:46:57;2.00;;;0.70;;
20814;SDS011;10568;48.176;16.316;2023-07-30T10:49:24;1.10;;;0.80;;
20814;SDS011;10568;48.176;16.316;2023-07-30T10:51:54;0.93;;;0.80;;
20814;SDS011;10568;48.176;16.316;2023-07-30T10:54:24;1.73;;;1.10;;
20814;SDS011;10568;48.176;16.316;2023-07-30T10:56:50;0.63;;;0.57;;
20814;SDS011;10568;48.176;16.316;2023-07-30T10:59:16;0.85;;;0.85;;
20814;SDS011;10568;48.176;16.316;2023-07-30T11:01:44;1.48;;;1.10;;
20814;SDS011;10568;48.176;16.316;2023-07-30T11:04:14;0.82;;;0.75;;
20814;SDS011;10568;48.176;16.316;2023-07-30T11:06:48;1.10;;;1.00;;
20814;SDS011;10568;48.176;16.316;2023-07-30T11:09:19;1.42;;;1.00;;
20814;SDS011;10568;48.176;16.316;2023-07-30T11:11:46;1.20;;;0.90;;
20814;SDS011;10568;48.176;16.316;2023-07-30T11:14:18;1.30;;;1.20;;
20814;SDS011;10568;48.176;16.316;2023-07-30T11:16:47;1.02;;;0.93;;
20814;SDS011;10568;48.176;16.316;2023-07-30T11:19:20;1.98;;;1.00;;
20814;SDS011;10568;48.176;16.316;2023-07-30T11:21:47;1.05;;;0.95;;
20814;SDS011;10568;48.176;16.316;2023-07-30T11:24:14;0.98;;;0.93;;
20814;SDS011;10568;48.176;16.316;2023-07-30T11:26:39;1.88;;;1.00;;
20814;SDS011;10568;48.176;16.316;2023-07-30T11:29:18;1.10;;;0.82;;
20814;SDS011;10568;48.176;16.316;2023-07-30T11:31:45;0.98;;;0.80;;
20814;SDS011;10568;48.176;16.316;2023-07-30T11:34:15;1.20;;;0.82;;
20814;SDS011;10568;48.176;16.316;2023-07-30T11:36:43;1.35;;;0.65;;
20814;SDS011;10568;48.176;16.316;2023-07-30T11:39:10;0.70;;;0.68;;
20814;SDS011;10568;48.176;16.316;2023-07-30T11:41:36;0.73;;;0.57;;
20814;SDS011;10568;48.176;16.316;2023-07-30T11:44:09;0.70;;;0.60;;
20814;SDS011;10568;48.176;16.316;2023-07-30T11:46:55;0.73;;;0.73;;
20814;SDS011;10568;48.176;16.316;2023-07-30T11:49:20;0.70;;;0.63;;
20814;SDS011;10568;48.176;16.316;2023-07-30T11:51:47;0.52;;;0.52;;
20814;SDS011;10568;48.176;16.316;2023-07-30T11:54:20;1.20;;;0.50;;
20814;SDS011;10568;48.176;16.316;2023-07-30T11:56:47;0.70;;;0.60;;
20814;SDS011;10568;48.176;16.316;2023-07-30T11:59:19;2.40;;;0.60;;
20814;SDS011;10568;48.176;16.316;2023-07-30T12:01:48;0.50;;;0.50;;
20814;SDS011;10568;48.176;16.316;2023-07-30T12:04:14;2.95;;;0.68;;
20814;SDS011;10568;48.176;16.316;2023-07-30T12:06:45;0.70;;;0.70;;
20814;SDS011;10568;48.176;16.316;2023-07-30T12:09:16;0.95;;;0.63;;
20814;SDS011;10568;48.176;16.316;2023-07-30T12:12:05;0.65;;;0.50;;
20814;SDS011;10568;48.176;16.316;2023-07-30T12:17:14;0.70;;;0.50;;
20814;SDS011;10568;48.176;16.316;2023-07-30T12:19:40;0.65;;;0.57;;
20814;SDS011;10568;48.176;16.316;2023-07-30T12:22:06;0.60;;;0.60;;
20814;SDS011;10568;48.176;16.316;2023-07-30T12:24:32;0.77;;;0.57;;
20814;SDS011;10568;48.176;16.316;2023-07-30T12:26:58;0.75;;;0.70;;
20814;SDS011;10568;48.176;16.316;2023-07-30T12:29:25;0.77;;;0.55;;
20814;SDS011;10568;48.176;16.316;2023-07-30T12:31:50;0.38;;;0.38;;
20814;SDS011;10568;48.176;16.316;2023-07-30T12:34:21;0.40;;;0.40;;
20814;SDS011;10568;48.176;16.316;2023-07-30T12:36:48;2.72;;;0.38;;
20814;SDS011;10568;48.176;16.316;2023-07-30T12:39:14;0.63;;;0.40;;
20814;SDS011;10568;48.176;16.316;2023-07-30T12:41:39;0.40;;;0.35;;
20814;SDS011;10568;48.176;16.316;2023-07-30T12:44:05;0.50;;;0.50;;
20814;SDS011;10568;48.176;16.316;2023-07-30T12:46:31;0.80;;;0.60;;
20814;SDS011;10568;48.176;16.316;2023-07-30T12:48:58;1.70;;;0.60;;
20814;SDS011;10568;48.176;16.316;2023-07-30T12:51:29;0.50;;;0.50;;
20814;SDS011;10568;48.176;16.316;2023-07-30T12:53:55;1.00;;;0.70;;
20814;SDS011;10568;48.176;16.316;2023-07-30T12:56:20;0.52;;;0.50;;
20814;SDS011;10568;48.176;16.316;2023-07-30T12:58:46;0.85;;;0.55;;
20814;SDS011;10568;48.176;16.316;2023-07-30T13:01:12;1.45;;;0.60;;
20814;SDS011;10568;48.176;16.316;2023-07-30T13:03:38;0.57;;;0.50;;
20814;SDS011;10568;48.176;16.316;2023-07-30T13:06:10;1.98;;;0.40;;
20814;SDS011;10568;48.176;16.316;2023-07-30T13:08:38;0.57;;;0.50;;
20814;SDS011;10568;48.176;16.316;2023-07-30T13:11:05;0.50;;;0.32;;
20814;SDS011;10568;48.176;16.316;2023-07-30T13:13:31;0.77;;;0.40;;
20814;SDS011;10568;48.176;16.316;2023-07-30T13:15:58;0.60;;;0.50;;
20814;SDS011;10568;48.176;16.316;2023-07-30T13:18:27;0.50;;;0.30;;
20814;SDS011;10568;48.176;16.316;2023-07-30T13:20:53;0.40;;;0.40;;
20814;SDS011;10568;48.176;16.316;2023-07-30T13:23:19;1.10;;;0.50;;
20814;SDS011;10568;48.176;16.316;2023-07-30T13:25:45;1.08;;;0.50;;
20814;SDS011;10568;48.176;16.316;2023-07-30T13:28:11;0.40;;;0.40;;
20814;SDS011;10568;48.176;16.316;2023-07-30T13:30:38;0.57;;;0.40;;
20814;SDS011;10568;48.176;16.316;2023-07-30T13:33:04;0.93;;;0.57;;
20814;SDS011;10568;48.176;16.316;2023-07-30T13:35:30;0.43;;;0.43;;
20814;SDS011;10568;48.176;16.316;2023-07-30T13:37:56;0.32;;;0.32;;
20814;SDS011;10568;48.176;16.316;2023-07-30T13:40:22;0.60;;;0.60;;
20814;SDS011;10568;48.176;16.316;2023-07-30T13:42:48;0.95;;;0.52;;
20814;SDS011;10568;48.176;16.316;2023-07-30T13:45:14;0.60;;;0.50;;
20814;SDS011;10568;48.176;16.316;2023-07-30T13:47:39;0.65;;;0.50;;
20814;SDS011;10568;48.176;16.316;2023-07-30T13:52:52;0.65;;;0.50;;
20814;SDS011;10568;48.176;16.316;2023-07-30T13:55:18;0.45;;;0.45;;
20814;SDS011;10568;48.176;16.316;2023-07-30T13:57:45;0.43;;;0.43;;
20814;SDS011;10568;48.176;16.316;2023-07-30T14:00:11;0.60;;;0.50;;
20814;SDS011;10568;48.176;16.316;2023-07-30T14:02:38;0.30;;;0.30;;
20814;SDS011;10568;48.176;16.316;2023-07-30T14:05:04;0.95;;;0.57;;
20814;SDS011;10568;48.176;16.316;2023-07-30T14:07:30;0.68;;;0.45;;
20814;SDS011;10568;48.176;16.316;2023-07-30T14:09:56;0.70;;;0.63;;
20814;SDS011;10568;48.176;16.316;2023-07-30T14:12:22;0.73;;;0.50;;
20814;SDS011;10568;48.176;16.316;2023-07-30T14:14:48;0.70;;;0.50;;
20814;SDS011;10568;48.176;16.316;2023-07-30T14:17:14;0.57;;;0.50;;
20814;SDS011;10568;48.176;16.316;2023-07-30T14:19:40;1.10;;;0.57;;
20814;SDS011;10568;48.176;16.316;2023-07-30T14:22:06;0.80;;;0.60;;
20814;SDS011;10568;48.176;16.316;2023-07-30T14:24:32;0.70;;;0.55;;
20814;SDS011;10568;48.176;16.316;2023-07-30T14:26:59;2.88;;;0.70;;
20814;SDS011;10568;48.176;16.316;2023-07-30T14:29:25;0.82;;;0.70;;
20814;SDS011;10568;48.176;16.316;2023-07-30T14:31:51;1.92;;;0.57;;
20814;SDS011;10568;48.176;16.316;2023-07-30T14:34:16;1.83;;;0.73;;
20814;SDS011;10568;48.176;16.316;2023-07-30T14:36:42;0.82;;;0.52;;
20814;SDS011;10568;48.176;16.316;2023-07-30T14:39:08;1.15;;;0.70;;
20814;SDS011;10568;48.176;16.316;2023-07-30T14:41:34;1.77;;;0.73;;
20814;SDS011;10568;48.176;16.316;2023-07-30T14:44:00;1.00;;;0.70;;